Terminal Aerodrome Forecast
Issued by NWS Cleveland, OH

Home | Current Version | Previous Version | Text Only | Print | Product List | Glossary Off
Versions: 1 2 3 4 5 6 7 8 9 10 11 12 13 14 15 16 17 18 19 20 21 22 23 24 25 26 27 28 29

000
FTUS41 KCLE 270540
TAFERI
TAF
KERI 270540Z 2706/2806 08012G16KT P6SM -RA SCT035 OVC100
     FM271000 09014G20KT 6SM -SHRA BR OVC035
      TEMPO 2710/2714 4SM -RA BR OVC012
     FM271400 09018G28KT 5SM SHRA BR OVC012
      TEMPO 2714/2718 2SM SHRA BR OVC008
     FM271800 09020G32KT 4SM SHRA BR VCTS OVC025CB
     FM280300 05014KT 3SM -SHRA BR OVC004=

USA.gov is the U.S. government's official web portal to all federal, state and local government web resources and services.